createdAt,value
2022-12-15T00:01:41.047Z,1.58
2022-12-15T00:04:07.749Z,2.03
2022-12-15T00:06:34.529Z,1.73
2022-12-15T00:09:01.219Z,1.65
2022-12-15T00:11:27.900Z,1.75
2022-12-15T00:13:54.576Z,1.45
2022-12-15T00:16:21.305Z,2.13
2022-12-15T00:18:48.011Z,1.52
2022-12-15T00:21:14.712Z,3.10
2022-12-15T00:23:41.403Z,1.27
2022-12-15T00:26:08.069Z,1.73
2022-12-15T00:28:34.737Z,3.65
2022-12-15T00:31:02.681Z,1.20
2022-12-15T00:33:30.014Z,3.08
2022-12-15T00:35:58.928Z,4.32
2022-12-15T00:38:25.613Z,1.55
2022-12-15T00:40:52.298Z,3.60
2022-12-15T00:43:19.039Z,2.58
2022-12-15T00:45:45.827Z,4.25
2022-12-15T00:48:12.493Z,2.05
2022-12-15T00:50:39.192Z,2.45
2022-12-15T00:53:05.883Z,3.08
2022-12-15T00:55:32.710Z,4.57
2022-12-15T00:57:59.365Z,1.65
2022-12-15T01:00:26.143Z,2.75
2022-12-15T01:02:52.990Z,1.75
2022-12-15T01:05:20.038Z,1.30
2022-12-15T01:07:49.440Z,2.50
2022-12-15T01:10:17.143Z,3.10
2022-12-15T01:12:43.899Z,2.00
2022-12-15T01:15:10.563Z,2.47
2022-12-15T01:17:37.217Z,1.70
2022-12-15T01:20:04.950Z,1.85
2022-12-15T01:22:31.616Z,2.78
2022-12-15T01:24:58.280Z,2.58
2022-12-15T01:27:24.963Z,3.63
2022-12-15T01:29:51.631Z,3.30
2022-12-15T01:32:18.301Z,3.35
2022-12-15T01:34:44.969Z,2.05
2022-12-15T01:37:11.615Z,3.38
2022-12-15T01:39:38.324Z,2.55
2022-12-15T01:42:05.042Z,3.75
2022-12-15T01:44:31.779Z,2.58
2022-12-15T01:46:58.522Z,3.28
2022-12-15T01:49:29.001Z,1.77
2022-12-15T01:52:02.859Z,4.88
2022-12-15T01:54:35.322Z,1.35
2022-12-15T01:57:06.985Z,3.95
2022-12-15T01:59:39.885Z,2.90
2022-12-15T02:04:33.294Z,3.45
2022-12-15T02:06:59.954Z,3.50
2022-12-15T02:09:26.889Z,3.10
2022-12-15T02:12:01.465Z,1.77
2022-12-15T02:15:03.615Z,2.97
2022-12-15T02:17:45.563Z,2.08
2022-12-15T02:20:45.772Z,3.92
2022-12-15T02:23:46.789Z,2.20
2022-12-15T02:26:54.984Z,2.55
2022-12-15T02:29:30.482Z,3.72
2022-12-15T02:32:14.241Z,2.55
2022-12-15T02:34:42.725Z,2.53
2022-12-15T02:37:17.828Z,3.03
2022-12-15T02:39:44.580Z,2.03
2022-12-15T02:42:11.414Z,3.13
2022-12-15T02:44:59.643Z,2.95
2022-12-15T02:47:26.243Z,1.77
2022-12-15T02:50:04.495Z,2.33
2022-12-15T02:52:58.627Z,1.50
2022-12-15T02:55:36.464Z,2.75
2022-12-15T02:58:12.723Z,3.92
2022-12-15T03:00:41.521Z,2.50
2022-12-15T03:03:08.600Z,1.98
2022-12-15T03:05:35.547Z,2.72
2022-12-15T03:08:02.329Z,2.03
2022-12-15T03:10:29.038Z,2.38
2022-12-15T03:12:55.721Z,3.58
2022-12-15T03:15:22.542Z,3.45
2022-12-15T03:17:49.250Z,3.00
2022-12-15T03:20:16.028Z,2.20
2022-12-15T03:22:42.689Z,2.28
2022-12-15T03:25:09.444Z,3.03
2022-12-15T03:27:36.104Z,2.42
2022-12-15T03:30:02.795Z,3.40
2022-12-15T03:32:29.513Z,1.83
2022-12-15T03:34:56.174Z,1.52
2022-12-15T03:37:22.849Z,4.22
2022-12-15T03:39:49.503Z,1.13
2022-12-15T03:42:16.178Z,1.80
2022-12-15T03:44:42.836Z,1.48
2022-12-15T03:47:09.492Z,2.47
2022-12-15T03:49:36.130Z,3.22
2022-12-15T03:52:02.896Z,3.20
2022-12-15T03:54:29.728Z,1.73
2022-12-15T03:56:56.418Z,2.28
2022-12-15T03:59:23.100Z,1.45
2022-12-15T04:01:49.964Z,3.45
2022-12-15T04:04:16.734Z,1.83
2022-12-15T04:06:43.397Z,1.65
2022-12-15T04:09:10.055Z,3.10
2022-12-15T04:11:36.723Z,1.92
2022-12-15T04:14:03.385Z,2.50
2022-12-15T04:16:30.120Z,3.67
2022-12-15T04:18:56.824Z,1.55
2022-12-15T04:21:23.502Z,2.05
2022-12-15T04:23:50.161Z,2.15
2022-12-15T04:26:16.847Z,2.78
2022-12-15T04:28:43.497Z,5.72
2022-12-15T04:31:11.922Z,2.72
2022-12-15T04:33:39.946Z,3.45
2022-12-15T04:36:08.151Z,1.95
2022-12-15T04:38:34.927Z,1.83
2022-12-15T04:41:02.056Z,1.58
2022-12-15T04:43:29.158Z,4.07
2022-12-15T04:45:56.215Z,1.90
2022-12-15T04:48:22.879Z,1.85
2022-12-15T04:50:49.764Z,2.97
2022-12-15T04:53:17.475Z,1.75
2022-12-15T04:55:44.144Z,3.22
2022-12-15T04:58:10.845Z,2.08
2022-12-15T05:00:37.707Z,1.85
2022-12-15T05:03:05.600Z,2.67
2022-12-15T05:05:32.254Z,2.03
2022-12-15T05:07:59.048Z,3.30
2022-12-15T05:10:25.765Z,1.80
2022-12-15T05:12:52.440Z,3.55
2022-12-15T05:15:19.103Z,3.08
2022-12-15T05:17:45.886Z,2.35
2022-12-15T05:20:12.558Z,1.60
2022-12-15T05:22:39.240Z,2.58
2022-12-15T05:25:06.210Z,2.00
2022-12-15T05:27:32.969Z,2.08
2022-12-15T05:29:59.688Z,3.67
2022-12-15T05:32:26.406Z,1.67
2022-12-15T05:34:53.096Z,2.60
2022-12-15T05:37:19.754Z,2.67
2022-12-15T05:39:46.436Z,1.67
2022-12-15T05:42:13.114Z,2.42
2022-12-15T05:44:39.838Z,1.25
2022-12-15T05:47:06.530Z,3.70
2022-12-15T05:49:33.737Z,2.15
2022-12-15T05:52:01.254Z,3.28
2022-12-15T05:54:28.095Z,3.70
2022-12-15T05:56:54.758Z,3.42
2022-12-15T05:59:21.554Z,2.70
2022-12-15T06:01:48.295Z,5.50
2022-12-15T06:04:15.109Z,3.55
2022-12-15T06:06:41.819Z,2.25
2022-12-15T06:09:09.443Z,3.47
2022-12-15T06:11:36.168Z,2.72
2022-12-15T06:14:02.857Z,1.45
2022-12-15T06:16:29.655Z,2.92
2022-12-15T06:18:58.470Z,2.95
2022-12-15T06:21:27.546Z,2.85
2022-12-15T06:23:55.351Z,1.80
2022-12-15T06:26:23.714Z,2.30
2022-12-15T06:28:50.548Z,5.95
2022-12-15T06:31:18.243Z,2.58
2022-12-15T06:33:44.965Z,3.70
2022-12-15T06:36:13.364Z,2.00
2022-12-15T06:38:40.276Z,2.00
2022-12-15T06:41:06.998Z,1.95
2022-12-15T06:43:34.422Z,2.20
2022-12-15T06:46:01.572Z,2.63
2022-12-15T06:48:28.269Z,2.70
2022-12-15T06:50:54.971Z,1.80
2022-12-15T06:53:23.162Z,3.10
2022-12-15T06:55:49.973Z,3.55
2022-12-15T06:58:17.161Z,3.20
2022-12-15T07:00:44.414Z,3.28
2022-12-15T07:03:14.134Z,3.28
2022-12-15T07:05:41.113Z,2.58
2022-12-15T07:08:08.535Z,4.60
2022-12-15T07:10:37.407Z,3.20
2022-12-15T07:13:04.073Z,4.45
2022-12-15T07:15:31.232Z,4.82
2022-12-15T07:17:57.907Z,3.92
2022-12-15T07:20:28.722Z,3.17
2022-12-15T07:22:55.655Z,3.70
2022-12-15T07:25:22.333Z,3.65
2022-12-15T07:27:49.044Z,3.30
2022-12-15T07:30:18.449Z,4.18
2022-12-15T07:32:49.942Z,4.78
2022-12-15T07:35:17.328Z,6.40
2022-12-15T07:37:44.110Z,2.38
2022-12-15T07:40:11.155Z,4.10
2022-12-15T07:42:37.843Z,4.30
2022-12-15T07:45:05.097Z,2.75
2022-12-15T07:47:32.040Z,2.25
2022-12-15T07:49:58.803Z,3.08
2022-12-15T07:52:25.578Z,3.00
2022-12-15T07:54:52.313Z,5.03
2022-12-15T07:57:19.154Z,3.20
2022-12-15T07:59:45.883Z,3.92
2022-12-15T08:02:12.984Z,6.18
2022-12-15T08:04:41.152Z,3.83
2022-12-15T08:07:08.768Z,3.17
2022-12-15T08:09:37.402Z,3.45
2022-12-15T08:12:04.554Z,2.83
2022-12-15T08:14:32.362Z,4.20
2022-12-15T08:16:59.744Z,3.30
2022-12-15T08:19:27.742Z,2.40
2022-12-15T08:21:54.526Z,5.57
2022-12-15T08:24:21.205Z,4.15
2022-12-15T08:26:49.849Z,6.75
2022-12-15T08:29:49.523Z,2.67
2022-12-15T08:32:04.427Z,2.05
2022-12-15T08:34:31.209Z,4.65
2022-12-15T08:36:57.927Z,4.82
2022-12-15T08:39:24.625Z,4.55
2022-12-15T08:41:51.278Z,6.82
2022-12-15T08:44:17.964Z,3.42
2022-12-15T08:46:44.717Z,4.15
2022-12-15T08:49:13.306Z,3.35
2022-12-15T08:51:43.235Z,4.40
2022-12-15T08:54:09.983Z,2.30
2022-12-15T08:56:36.640Z,5.15
2022-12-15T08:59:03.350Z,5.80
2022-12-15T09:01:31.074Z,4.45
2022-12-15T09:03:58.258Z,5.55
2022-12-15T09:06:27.340Z,3.17
2022-12-15T09:08:55.572Z,4.70
2022-12-15T09:11:23.313Z,5.57
2022-12-15T09:13:50.215Z,5.38
2022-12-15T09:16:17.195Z,4.07
2022-12-15T09:18:51.755Z,3.35
2022-12-15T09:21:18.919Z,3.30
2022-12-15T09:23:52.707Z,6.20
2022-12-15T09:26:20.336Z,4.18
2022-12-15T09:28:50.156Z,4.13
2022-12-15T09:31:20.006Z,6.82
2022-12-15T09:33:46.746Z,5.45
2022-12-15T09:36:13.536Z,5.18
2022-12-15T09:38:40.931Z,6.60
2022-12-15T09:41:31.834Z,3.92
2022-12-15T09:44:17.415Z,5.55
2022-12-15T09:47:05.833Z,5.57
2022-12-15T09:49:47.527Z,5.32
2022-12-15T09:52:26.898Z,5.15
2022-12-15T09:54:53.645Z,6.57
2022-12-15T09:57:31.867Z,5.93
2022-12-15T10:00:23.540Z,4.70
2022-12-15T10:03:16.778Z,4.35
2022-12-15T10:06:06.051Z,5.63
2022-12-15T10:08:32.897Z,6.55
2022-12-15T10:11:01.156Z,5.40
2022-12-15T10:13:31.121Z,8.45
2022-12-15T10:16:20.530Z,5.35
2022-12-15T10:19:08.209Z,4.85
2022-12-15T10:21:34.948Z,4.07
2022-12-15T10:24:59.873Z,5.55
2022-12-15T10:27:12.647Z,4.75
2022-12-15T10:30:12.216Z,5.78
2022-12-15T10:33:11.521Z,6.90
2022-12-15T10:35:38.245Z,7.40
2022-12-15T10:38:06.654Z,4.13
2022-12-15T10:40:50.329Z,5.57
2022-12-15T10:43:26.474Z,4.80
2022-12-15T10:46:12.693Z,3.95
2022-12-15T10:48:40.019Z,4.20
2022-12-15T10:51:31.182Z,3.80
2022-12-15T10:54:03.791Z,4.88
2022-12-15T10:59:37.698Z,5.38
2022-12-15T11:02:28.900Z,5.93
2022-12-15T11:04:56.317Z,5.78
2022-12-15T11:07:23.066Z,6.45
2022-12-15T11:09:51.100Z,4.38
2022-12-15T11:12:29.720Z,3.67
2022-12-15T11:14:56.388Z,5.57
2022-12-15T11:17:23.546Z,4.88
2022-12-15T11:20:02.759Z,6.50
2022-12-15T11:22:53.063Z,7.40
2022-12-15T11:25:50.577Z,5.78
2022-12-15T11:28:24.003Z,5.93
2022-12-15T11:31:02.972Z,9.18
2022-12-15T11:33:30.127Z,8.65
2022-12-15T11:36:08.508Z,7.03
2022-12-15T11:38:43.137Z,7.70
2022-12-15T11:41:32.114Z,7.45
2022-12-15T11:44:06.307Z,9.13
2022-12-15T11:46:52.003Z,8.10
2022-12-15T11:49:59.631Z,8.93
2022-12-15T11:52:54.324Z,7.40
2022-12-15T11:55:41.057Z,8.50
2022-12-15T11:58:36.426Z,9.07
2022-12-15T12:01:06.263Z,9.35
2022-12-15T12:04:01.365Z,8.98
2022-12-15T12:06:34.050Z,7.25
2022-12-15T12:09:22.437Z,8.60
2022-12-15T12:11:56.617Z,9.18
2022-12-15T12:14:39.878Z,7.50
2022-12-15T12:17:41.734Z,6.72
2022-12-15T12:20:28.383Z,7.78
2022-12-15T12:23:06.406Z,8.70
2022-12-15T12:26:02.589Z,6.43
2022-12-15T12:28:36.117Z,8.90
2022-12-15T12:31:02.982Z,10.07
2022-12-15T12:33:39.106Z,7.70
2022-12-15T12:36:11.427Z,7.53
2022-12-15T12:38:50.505Z,8.82
2022-12-15T12:41:40.174Z,7.63
2022-12-15T12:44:16.011Z,9.38
2022-12-15T12:46:48.823Z,8.73
2022-12-15T12:51:55.479Z,7.75
2022-12-15T12:54:34.430Z,7.57
2022-12-15T12:57:01.907Z,8.45
2022-12-15T12:59:28.555Z,6.90
2022-12-15T13:01:56.346Z,7.95
2022-12-15T13:04:29.324Z,8.27
2022-12-15T13:06:58.473Z,9.40
2022-12-15T13:09:44.173Z,10.65
2022-12-15T13:15:37.075Z,6.13
2022-12-15T13:18:16.762Z,6.95
2022-12-15T13:20:44.098Z,5.55
2022-12-15T13:23:34.729Z,6.00
2022-12-15T13:26:04.323Z,7.70
2022-12-15T13:28:37.055Z,6.00
2022-12-15T13:31:18.689Z,8.10
2022-12-15T13:33:51.793Z,5.05
2022-12-15T13:36:37.138Z,4.93
2022-12-15T13:39:04.656Z,5.38
2022-12-15T13:41:31.352Z,6.43
2022-12-15T13:43:58.038Z,5.47
2022-12-15T13:46:27.727Z,4.82
2022-12-15T13:49:06.821Z,5.68
2022-12-15T13:51:38.074Z,6.18
2022-12-15T13:54:15.056Z,5.30
2022-12-15T13:57:17.617Z,5.28
2022-12-15T13:59:49.400Z,5.47
2022-12-15T14:02:35.084Z,5.38
2022-12-15T14:05:05.667Z,4.78
2022-12-15T14:07:33.435Z,7.97
2022-12-15T14:10:00.174Z,4.40
2022-12-15T14:12:26.863Z,3.95
2022-12-15T14:14:53.549Z,6.10
2022-12-15T14:17:20.245Z,5.68
2022-12-15T14:19:51.058Z,5.25
2022-12-15T14:22:29.894Z,4.95
2022-12-15T14:25:02.796Z,6.65
2022-12-15T14:27:30.877Z,6.25
2022-12-15T14:30:18.213Z,4.32
2022-12-15T14:32:44.917Z,4.72
2022-12-15T14:35:37.278Z,5.35
2022-12-15T14:38:06.898Z,4.50
2022-12-15T14:40:35.539Z,4.68
2022-12-15T14:43:02.199Z,6.25
2022-12-15T14:45:31.094Z,5.63
2022-12-15T14:48:40.111Z,6.07
2022-12-15T14:50:54.482Z,6.65
2022-12-15T14:53:21.701Z,5.60
2022-12-15T14:55:48.481Z,3.95
2022-12-15T14:58:33.400Z,5.55
2022-12-15T15:01:01.041Z,5.00
2022-12-15T15:03:05.229Z,7.78
2022-12-15T15:03:09.800Z,5.40
2022-12-15T15:03:38.611Z,4.70
2022-12-15T15:06:11.410Z,4.20
2022-12-15T15:08:47.465Z,6.50
2022-12-15T15:11:27.396Z,3.03
2022-12-15T15:13:56.209Z,4.03
2022-12-15T15:16:23.106Z,2.30
2022-12-15T15:18:50.831Z,4.30
2022-12-15T15:21:20.523Z,2.47
2022-12-15T15:24:11.430Z,2.50
2022-12-15T15:26:38.320Z,4.10
2022-12-15T15:29:37.288Z,4.18
2022-12-15T15:32:20.942Z,3.10
2022-12-15T15:34:47.823Z,4.43
2022-12-15T15:37:22.956Z,2.50
2022-12-15T15:39:53.971Z,2.15
2022-12-15T15:42:20.700Z,3.03
2022-12-15T15:44:47.447Z,3.78
2022-12-15T15:47:19.917Z,2.35
2022-12-15T15:49:46.662Z,3.13
2022-12-15T15:52:13.379Z,2.75
2022-12-15T15:54:40.074Z,3.50
2022-12-15T15:57:08.916Z,2.70
2022-12-15T15:59:35.609Z,4.95
2022-12-15T16:02:02.378Z,2.63
2022-12-15T16:04:29.172Z,5.18
2022-12-15T16:06:55.837Z,4.10
2022-12-15T16:09:22.551Z,3.47
2022-12-15T16:11:49.285Z,3.80
2022-12-15T16:14:16.783Z,2.65
2022-12-15T16:16:43.831Z,3.63
2022-12-15T16:19:10.822Z,2.95
2022-12-15T16:21:37.532Z,5.05
2022-12-15T16:24:08.339Z,4.47
2022-12-15T16:26:35.103Z,5.35
2022-12-15T16:29:01.839Z,4.50
2022-12-15T16:31:41.030Z,4.70
2022-12-15T16:34:08.590Z,3.38
2022-12-15T16:36:35.420Z,4.28
2022-12-15T16:39:02.431Z,4.28
2022-12-15T16:41:29.109Z,2.90
2022-12-15T16:43:55.814Z,2.60
2022-12-15T16:46:22.506Z,4.13
2022-12-15T16:48:49.314Z,4.35
2022-12-15T16:51:40.214Z,3.75
2022-12-15T16:54:06.920Z,5.60
2022-12-15T16:56:33.613Z,4.68
2022-12-15T16:59:30.959Z,4.43
2022-12-15T17:01:47.102Z,2.70
2022-12-15T17:04:14.252Z,3.38
2022-12-15T17:06:40.990Z,4.55
2022-12-15T17:09:07.715Z,6.60
2022-12-15T17:11:34.480Z,7.63
2022-12-15T17:14:01.153Z,9.25
2022-12-15T17:16:28.266Z,7.88
2022-12-15T17:18:55.056Z,8.18
2022-12-15T17:21:29.473Z,7.15
2022-12-15T17:23:57.934Z,5.97
2022-12-15T17:26:29.709Z,7.03
2022-12-15T17:28:58.753Z,5.40
2022-12-15T17:31:28.970Z,6.85
2022-12-15T17:34:01.292Z,7.80
2022-12-15T17:36:28.097Z,9.40
2022-12-15T17:38:56.230Z,7.78
2022-12-15T17:41:57.463Z,6.70
2022-12-15T17:44:38.989Z,9.30
2022-12-15T17:47:07.388Z,9.38
2022-12-15T17:49:37.254Z,9.10
2022-12-15T17:52:33.769Z,10.57
2022-12-15T17:55:00.484Z,9.40
2022-12-15T17:57:27.221Z,9.73
2022-12-15T17:59:53.989Z,9.43
2022-12-15T18:02:20.780Z,8.80
2022-12-15T18:04:47.526Z,8.10
2022-12-15T18:07:19.845Z,8.80
2022-12-15T18:09:46.559Z,5.95
2022-12-15T18:12:26.500Z,6.97
2022-12-15T18:14:53.579Z,6.82
2022-12-15T18:17:20.497Z,8.75
2022-12-15T18:19:47.207Z,5.85
2022-12-15T18:22:17.060Z,5.43
2022-12-15T18:24:43.772Z,6.10
2022-12-15T18:27:22.493Z,9.85
2022-12-15T18:29:49.466Z,9.20
2022-12-15T18:32:16.670Z,8.32
2022-12-15T18:34:43.380Z,6.57
2022-12-15T18:37:17.149Z,7.57
2022-12-15T18:39:43.910Z,7.47
2022-12-15T18:42:20.082Z,6.05
2022-12-15T18:44:48.236Z,8.73
2022-12-15T18:47:20.235Z,7.90
2022-12-15T18:49:47.044Z,7.28
2022-12-15T18:52:21.465Z,8.68
2022-12-15T18:54:48.802Z,7.10
2022-12-15T18:57:27.667Z,8.63
2022-12-15T18:59:57.438Z,6.35
2022-12-15T19:02:24.272Z,4.88
2022-12-15T19:04:51.036Z,8.32
2022-12-15T19:07:17.682Z,8.82
2022-12-15T19:09:44.373Z,7.90
2022-12-15T19:12:14.491Z,8.57
2022-12-15T19:14:41.180Z,8.20
2022-12-15T19:17:14.726Z,8.23
2022-12-15T19:19:41.403Z,8.43
2022-12-15T19:22:11.073Z,6.00
2022-12-15T19:24:37.767Z,5.28
2022-12-15T19:27:11.785Z,4.88
2022-12-15T19:29:39.220Z,5.65
2022-12-15T19:32:06.172Z,5.40
2022-12-15T19:34:33.059Z,6.45
2022-12-15T19:37:00.584Z,6.10
2022-12-15T19:39:27.264Z,7.03
2022-12-15T19:41:53.982Z,8.00
2022-12-15T19:44:21.584Z,6.30
2022-12-15T19:46:48.206Z,8.40
2022-12-15T19:49:14.874Z,6.28
2022-12-15T19:51:41.629Z,6.32
2022-12-15T19:54:12.643Z,7.95
2022-12-15T19:56:39.363Z,6.03
2022-12-15T19:59:08.182Z,6.47
2022-12-15T20:01:34.982Z,7.32
2022-12-15T20:04:01.761Z,6.47
2022-12-15T20:06:28.482Z,6.10
2022-12-15T20:08:55.640Z,6.43
2022-12-15T20:11:25.720Z,8.35
2022-12-15T20:13:52.528Z,7.97
2022-12-15T20:16:19.371Z,6.75
2022-12-15T20:18:46.975Z,5.97
2022-12-15T20:21:17.879Z,6.53
2022-12-15T20:24:06.738Z,5.18
2022-12-15T20:26:33.528Z,6.15
2022-12-15T20:29:00.193Z,7.00
2022-12-15T20:31:27.193Z,7.65
2022-12-15T20:33:54.163Z,6.07
2022-12-15T20:36:28.139Z,5.63
2022-12-15T20:38:54.902Z,6.63
2022-12-15T20:41:26.477Z,6.05
2022-12-15T20:43:53.474Z,5.90
2022-12-15T20:46:28.658Z,5.70
2022-12-15T20:48:55.549Z,3.80
2022-12-15T20:51:25.910Z,6.07
2022-12-15T20:53:53.283Z,4.82
2022-12-15T20:56:22.697Z,6.07
2022-12-15T20:58:53.450Z,6.18
2022-12-15T21:01:24.148Z,22.02
2022-12-15T21:03:51.817Z,5.72
2022-12-15T21:06:18.862Z,6.93
2022-12-15T21:08:45.586Z,6.20
2022-12-15T21:11:15.255Z,5.53
2022-12-15T21:13:42.046Z,6.15
2022-12-15T21:16:24.301Z,4.65
2022-12-15T21:19:18.704Z,6.63
2022-12-15T21:21:39.894Z,4.70
2022-12-15T21:24:17.795Z,4.15
2022-12-15T21:26:44.609Z,3.75
2022-12-15T21:29:16.518Z,3.85
2022-12-15T21:31:43.624Z,4.40
2022-12-15T21:34:10.489Z,3.85
2022-12-15T21:36:37.482Z,5.22
2022-12-15T21:39:05.261Z,6.05
2022-12-15T21:41:31.964Z,5.43
2022-12-15T21:43:58.704Z,4.63
2022-12-15T21:46:27.973Z,3.58
2022-12-15T21:48:55.728Z,4.72
2022-12-15T21:51:22.397Z,4.18
2022-12-15T21:53:49.108Z,4.18
2022-12-15T21:56:16.803Z,9.00
2022-12-15T21:58:43.799Z,4.50
2022-12-15T22:01:13.557Z,5.93
2022-12-15T22:03:41.481Z,5.32
2022-12-15T22:06:14.014Z,8.13
2022-12-15T22:08:40.728Z,7.45
2022-12-15T22:11:22.254Z,5.80
2022-12-15T22:13:52.682Z,6.43
2022-12-15T22:18:50.384Z,5.63
2022-12-15T22:21:17.042Z,6.30
2022-12-15T22:23:43.773Z,5.82
2022-12-15T22:26:29.711Z,6.82
2022-12-15T22:28:57.138Z,5.97
2022-12-15T22:31:23.864Z,6.53
2022-12-15T22:33:50.992Z,5.43
2022-12-15T22:36:17.661Z,6.07
2022-12-15T22:38:44.881Z,5.70
2022-12-15T22:41:22.378Z,5.28
2022-12-15T22:43:53.046Z,8.52
2022-12-15T22:46:22.543Z,6.38
2022-12-15T22:48:49.308Z,6.90
2022-12-15T22:51:18.818Z,7.30
2022-12-15T22:53:45.620Z,6.68
2022-12-15T22:56:24.025Z,7.70
2022-12-15T22:59:01.401Z,6.70
2022-12-15T23:01:28.169Z,7.65
2022-12-15T23:03:55.039Z,5.53
2022-12-15T23:06:22.308Z,7.85
2022-12-15T23:08:52.483Z,7.35
2022-12-15T23:11:22.407Z,5.38
2022-12-15T23:13:49.114Z,4.78
2022-12-15T23:16:15.814Z,5.18
2022-12-15T23:18:42.534Z,5.68
2022-12-15T23:21:09.224Z,5.45
2022-12-15T23:23:36.621Z,6.75
2022-12-15T23:26:03.763Z,8.18
2022-12-15T23:28:30.821Z,6.82
2022-12-15T23:30:57.538Z,6.63
2022-12-15T23:33:25.826Z,7.22
2022-12-15T23:35:54.843Z,5.82
2022-12-15T23:38:22.078Z,4.47
2022-12-15T23:40:52.839Z,4.68
2022-12-15T23:43:20.298Z,6.57
2022-12-15T23:45:49.749Z,5.28
2022-12-15T23:48:16.420Z,5.45
2022-12-15T23:50:43.106Z,4.30
2022-12-15T23:53:09.826Z,4.00
2022-12-15T23:55:36.494Z,6.80
2022-12-15T23:58:03.299Z,5.18
